New Richmond, Wisconsin
Current Conditions -  °F | °C
As of 9:15 PM on Saturday 22 Nov 2014 (Local Time) from KRNH Reporting Station
Moderate Fog Moderate Fog  
Wind Chill: 32°   Ceiling: 200
Heat Index: 36°   Visibility: 0.5mi
Dew Point: 36°   Wind: 5mph
Humidity: 100%   Direction: 130°SE
Pressure: 29.6"   Gusts: NA
Location:  45.12°N, 92.54°W
Report Text: KRNH 230315Z AUTO 13004KT 1/2SM FG OVC002 02/02 A2960 RMK AO2 T00210021
Loading
Personal Weather Stations






























Interactive Weather Map New forecast layout! Learn more

10-Day Weather Forecast

Advertisements
Track Severe Weather on mobile